Aérodrome :
LOGIN :

S'inscrire | Disclaimer

   EN    FR    IT 

 










Légende :    VFR   VFR Marginal   IFR   IFR Intensif   IFR Très Intensif
Visi : 
Plafond : 
>= 8 km
>= 3000ft
5 à 8 km
1000 à 3000 ft
1500m à 5 km
500 à 1000 ft
800 à 1500m
200 à 500 ft
< 800m
< 200 ft
Symboles :   Orages  Brouillard  Fortes neiges  Fortes précipitations  Vent > 20 kt
SIGMETs :   Divers  Orages  Givrage  Turbulence  Onde Orograph.  Cendres Volcan.






- Altitude de l'aérodrome : 194 ft


EBCV - Chièvres

DERNIER METAR :
  • 172055Z AUTO 23015KT 9999 BKN023/// 07/05 Q1018 WHT

METARs EXPIRÉS :
  • 172025Z AUTO 24015KT 9999 BKN020/// 07/05 Q1018 WHT
  • 171955Z AUTO 25014G25KT 9999 -RA OVC018/// 07/06 Q1017 WHT
  • 171946Z AUTO 25010KT 9000 RA OVC016/// 07/06 Q1017 WHT
  • 171925Z AUTO 26015KT 1700 -RASN BKN014/// 06/05 Q1017 YLO
  • 171914Z AUTO 24014KT 4300 -RASN BKN017/// 07/05 Q1017 GRN
  • 171903Z AUTO 27018KT 6000 -RASN OVC017/// 07/05 Q1017 WHT
  • 171855Z AUTO 27018KT 4300 RA OVC018/// 07/05 Q1017 GRN
  • 171825Z AUTO 24018KT 9999 BKN022/// 08/05 Q1016 WHT

TAF TAF EBCV
Valide du 17 à 19h jusqu'au 18 à 07h UTC


171541Z 1719/1807 24017G30KT 9999 SCT020 BKN025
TEMPO 1719/1723 24020G35KT 5000 -SHRA BKN015TCU BKN030
PROB30
TEMPO 1719/1720 24025G40KT 3000 -TSRAGS BKN010CB BKN020
BECMG 1723/1801 FEW020
PROB30
TEMPO 1801/1807 24020G35KT 5000 -SHRA SCT015TCU SCT035 BY EBWM



MET'MAP, la Météo Aéronautique d'un coup d'oeil ! - Copyright ORBIFLY Décembre 2007 - Disclaimer

ORBIFLY MET'MAP TEAM :

Programmation & Développement : Alexandra Zaïnal
Sur une idée originale de : Baudouin d'Aumeries
Assistance à la programmation : Marc-Olivier Méhu
Soutien technique & logistique : Manuel Goepfert

Contact : metmap@orbifly.com




SOURCES & CREDITS :

   NOAA